Terminal Aerodrome Forecast
Issued by NWS Wilmington, OH

Home | Current Version | Previous Version | Text Only | Print | Product List | Glossary On
Versions: 1 2 3 4 5 6 7 8 9 10 11 12 13 14 15 16 17 18 19 20 21 22 23 24 25 26 27 28 29 30 31 32 33 34
388
FTUS41 KILN 021729
TAFCVG
TAF
KCVG 021729Z 0218/0324 28008KT P6SM SCT030 BKN080
     FM030100 36005KT P6SM SCT020 OVC050
     FM030900 36004KT P6SM OVC025
      TEMPO 0309/0313 4SM BR
     FM031500 33005KT P6SM SCT025 BKN040=

USA.gov is the U.S. government's official web portal to all federal, state and local government web resources and services.